createdAt,value
2022-07-29T00:02:26.582Z,23.11
2022-07-29T00:04:53.196Z,22.99
2022-07-29T00:07:39.651Z,23.03
2022-07-29T00:10:26.108Z,23.05
2022-07-29T00:13:12.583Z,23.05
2022-07-29T00:16:04.795Z,23.01
2022-07-29T00:18:51.628Z,22.98
2022-07-29T00:21:38.108Z,23.04
2022-07-29T00:24:05.119Z,22.98
2022-07-29T00:26:33.404Z,22.96
2022-07-29T00:29:32.000Z,22.95
2022-07-29T00:31:47.385Z,22.92
2022-07-29T00:34:32.763Z,22.92
2022-07-29T00:36:59.260Z,22.84
2022-07-29T00:39:25.836Z,22.77
2022-07-29T00:41:54.650Z,22.69
2022-07-29T00:44:21.264Z,22.62
2022-07-29T00:46:47.873Z,22.67
2022-07-29T00:49:14.645Z,22.54
2022-07-29T00:51:41.829Z,22.29
2022-07-29T00:54:08.521Z,22.36
2022-07-29T00:56:34.998Z,22.38
2022-07-29T00:59:01.914Z,22.38
2022-07-29T01:01:29.422Z,22.35
2022-07-29T01:03:56.119Z,22.27
2022-07-29T01:06:23.438Z,22.23
2022-07-29T01:08:50.275Z,22.23
2022-07-29T01:11:18.088Z,22.25
2022-07-29T01:13:46.781Z,22.29
2022-07-29T01:16:24.723Z,22.23
2022-07-29T01:18:57.720Z,22.16
2022-07-29T01:21:52.834Z,22.13
2022-07-29T01:24:40.703Z,22.02
2022-07-29T01:27:35.172Z,21.99
2022-07-29T01:30:05.211Z,21.87
2022-07-29T01:32:38.042Z,21.84
2022-07-29T01:35:21.428Z,21.80
2022-07-29T01:37:52.911Z,21.67
2022-07-29T01:40:32.051Z,21.67
2022-07-29T01:43:04.191Z,21.62
2022-07-29T01:45:41.869Z,21.63
2022-07-29T01:48:17.591Z,21.60
2022-07-29T01:50:57.421Z,21.59
2022-07-29T01:53:37.859Z,21.46
2022-07-29T01:56:07.305Z,21.36
2022-07-29T01:58:36.559Z,21.24
2022-07-29T02:01:04.464Z,21.13
2022-07-29T02:03:32.581Z,21.15
2022-07-29T02:06:00.873Z,21.19
2022-07-29T02:08:29.056Z,21.00
2022-07-29T02:10:56.584Z,21.09
2022-07-29T02:13:25.555Z,20.85
2022-07-29T02:15:53.979Z,20.89
2022-07-29T02:18:24.997Z,20.83
2022-07-29T02:20:55.164Z,20.77
2022-07-29T02:23:24.015Z,20.72
2022-07-29T02:25:54.112Z,20.58
2022-07-29T02:28:23.512Z,20.52
2022-07-29T02:30:53.041Z,20.51
2022-07-29T02:33:21.437Z,20.61
2022-07-29T02:35:48.837Z,20.63
2022-07-29T02:38:36.135Z,20.56
2022-07-29T02:41:08.793Z,20.53
2022-07-29T02:43:36.786Z,20.60
2022-07-29T02:46:12.724Z,20.57
2022-07-29T02:49:11.342Z,20.53
2022-07-29T02:51:45.057Z,20.61
2022-07-29T02:54:22.506Z,20.68
2022-07-29T02:56:50.675Z,20.65
2022-07-29T02:59:24.185Z,20.67
2022-07-29T03:01:51.935Z,20.59
2022-07-29T03:04:21.389Z,20.55
2022-07-29T03:06:50.620Z,20.53
2022-07-29T03:09:18.268Z,20.44
2022-07-29T03:11:49.175Z,20.50
2022-07-29T03:14:21.612Z,20.47
2022-07-29T03:16:49.374Z,20.42
2022-07-29T03:19:16.423Z,20.39
2022-07-29T03:21:43.104Z,20.36
2022-07-29T03:24:10.877Z,20.36
2022-07-29T03:26:37.759Z,20.23
2022-07-29T03:29:04.277Z,20.19
2022-07-29T03:31:30.863Z,20.18
2022-07-29T03:33:58.389Z,20.26
2022-07-29T03:36:25.686Z,20.27
2022-07-29T03:38:53.061Z,20.08
2022-07-29T03:41:22.643Z,20.08
2022-07-29T03:43:50.939Z,20.10
2022-07-29T03:46:18.679Z,20.00
2022-07-29T03:48:49.581Z,20.09
2022-07-29T03:51:16.216Z,20.01
2022-07-29T03:53:43.548Z,20.04
2022-07-29T03:56:11.301Z,20.08
2022-07-29T03:58:39.104Z,20.02
2022-07-29T04:01:06.113Z,19.94
2022-07-29T04:03:32.787Z,19.94
2022-07-29T04:06:01.173Z,19.96
2022-07-29T04:08:27.693Z,20.00
2022-07-29T04:10:54.340Z,19.88
2022-07-29T04:13:21.527Z,19.94
2022-07-29T04:15:48.422Z,19.98
2022-07-29T04:18:15.244Z,19.93
2022-07-29T04:20:41.701Z,19.91
2022-07-29T04:23:08.155Z,19.82
2022-07-29T04:25:38.241Z,19.81
2022-07-29T04:28:04.929Z,19.75
2022-07-29T04:30:32.912Z,19.74
2022-07-29T04:33:01.644Z,19.85
2022-07-29T04:35:29.455Z,19.88
2022-07-29T04:37:55.977Z,19.89
2022-07-29T04:40:22.823Z,19.89
2022-07-29T04:42:49.528Z,19.94
2022-07-29T04:45:16.427Z,19.95
2022-07-29T04:47:48.852Z,19.92
2022-07-29T04:50:15.464Z,20.00
2022-07-29T04:52:41.987Z,19.93
2022-07-29T04:55:08.865Z,20.06
2022-07-29T04:57:35.328Z,20.03
2022-07-29T05:00:02.220Z,20.06
2022-07-29T05:02:28.734Z,20.07
2022-07-29T05:04:55.193Z,20.05
2022-07-29T05:07:21.767Z,20.04
2022-07-29T05:09:48.427Z,20.13
2022-07-29T05:12:14.960Z,20.18
2022-07-29T05:14:41.445Z,20.18
2022-07-29T05:17:07.995Z,20.10
2022-07-29T05:19:34.463Z,20.17
2022-07-29T05:22:06.421Z,20.28
2022-07-29T05:24:32.981Z,20.30
2022-07-29T05:26:59.509Z,20.30
2022-07-29T05:29:44.774Z,20.35
2022-07-29T05:32:13.700Z,20.28
2022-07-29T05:34:50.467Z,20.38
2022-07-29T05:37:20.212Z,20.50
2022-07-29T05:39:50.481Z,20.47
2022-07-29T05:42:23.029Z,20.53
2022-07-29T05:44:49.557Z,20.66
2022-07-29T05:47:16.883Z,20.69
2022-07-29T05:49:43.388Z,20.71
2022-07-29T05:52:09.934Z,20.79
2022-07-29T05:54:36.808Z,20.89
2022-07-29T05:57:04.290Z,20.94
2022-07-29T05:59:30.957Z,21.04
2022-07-29T06:01:58.434Z,20.99
2022-07-29T06:04:25.337Z,21.05
2022-07-29T06:06:52.063Z,21.21
2022-07-29T06:09:18.614Z,21.28
2022-07-29T06:11:45.079Z,21.38
2022-07-29T06:14:12.047Z,21.50
2022-07-29T06:16:38.707Z,21.53
2022-07-29T06:19:05.520Z,21.63
2022-07-29T06:21:32.096Z,21.86
2022-07-29T06:23:58.645Z,21.83
2022-07-29T06:26:30.348Z,21.90
2022-07-29T06:28:57.399Z,21.99
2022-07-29T06:31:24.047Z,22.13
2022-07-29T06:33:50.685Z,22.17
2022-07-29T06:36:17.188Z,22.22
2022-07-29T06:38:49.527Z,22.25
2022-07-29T06:41:18.875Z,22.32
2022-07-29T06:43:52.065Z,22.41
2022-07-29T06:46:22.453Z,22.58
2022-07-29T06:48:49.940Z,22.58
2022-07-29T06:51:17.393Z,22.76
2022-07-29T06:53:59.076Z,22.84
2022-07-29T06:56:28.618Z,22.92
2022-07-29T06:58:55.237Z,22.71
2022-07-29T07:01:21.902Z,22.95
2022-07-29T07:03:48.991Z,23.10
2022-07-29T07:06:15.663Z,23.17
2022-07-29T07:08:42.145Z,23.22
2022-07-29T07:11:09.384Z,23.04
2022-07-29T07:13:36.832Z,23.18
2022-07-29T07:16:03.882Z,23.36
2022-07-29T07:18:30.377Z,23.54
2022-07-29T07:20:57.855Z,23.36
2022-07-29T07:23:24.884Z,23.44
2022-07-29T07:25:52.258Z,23.64
2022-07-29T07:28:18.785Z,23.91
2022-07-29T07:30:51.264Z,24.02
2022-07-29T07:33:17.839Z,23.94
2022-07-29T07:35:45.133Z,24.01
2022-07-29T07:38:11.659Z,24.24
2022-07-29T07:40:38.241Z,24.44
2022-07-29T07:43:04.876Z,24.50
2022-07-29T07:45:33.489Z,24.74
2022-07-29T07:48:00.231Z,24.88
2022-07-29T07:50:26.956Z,24.82
2022-07-29T07:52:58.599Z,24.89
2022-07-29T07:55:26.815Z,24.80
2022-07-29T07:57:54.408Z,24.53
2022-07-29T08:00:22.926Z,24.58
2022-07-29T08:02:50.791Z,24.78
2022-07-29T08:05:20.282Z,24.79
2022-07-29T08:07:47.841Z,24.84
2022-07-29T08:10:39.644Z,24.80
2022-07-29T08:13:11.840Z,24.54
2022-07-29T08:15:39.968Z,24.58
2022-07-29T08:18:08.913Z,24.81
2022-07-29T08:20:36.888Z,24.68
2022-07-29T08:23:05.200Z,24.67
2022-07-29T08:25:31.921Z,24.70
2022-07-29T08:27:58.518Z,24.47
2022-07-29T08:30:25.319Z,24.57
2022-07-29T08:32:55.093Z,24.69
2022-07-29T08:35:22.980Z,24.94
2022-07-29T08:37:49.844Z,25.08
2022-07-29T08:40:16.749Z,24.94
2022-07-29T08:42:43.621Z,25.37
2022-07-29T08:45:10.719Z,25.65
2022-07-29T08:47:42.760Z,25.89
2022-07-29T08:50:10.427Z,25.92
2022-07-29T08:52:40.752Z,26.22
2022-07-29T08:55:09.845Z,26.22
2022-07-29T08:57:37.112Z,26.53
2022-07-29T09:00:11.634Z,26.81
2022-07-29T09:02:46.996Z,27.07
2022-07-29T09:05:15.237Z,27.19
2022-07-29T09:07:44.165Z,27.06
2022-07-29T09:10:11.135Z,27.05
2022-07-29T09:12:38.362Z,27.11
2022-07-29T09:15:05.486Z,26.88
2022-07-29T09:17:43.331Z,26.44
2022-07-29T09:20:15.364Z,26.43
2022-07-29T09:22:42.404Z,26.60
2022-07-29T09:25:09.436Z,27.04
2022-07-29T09:27:36.569Z,27.45
2022-07-29T09:30:11.448Z,27.45
2022-07-29T09:32:59.116Z,27.77
2022-07-29T09:35:27.377Z,27.75
2022-07-29T09:37:54.036Z,27.56
2022-07-29T09:40:25.813Z,27.49
2022-07-29T09:42:54.114Z,27.89
2022-07-29T09:45:31.699Z,27.48
2022-07-29T09:48:03.944Z,26.96
2022-07-29T09:50:41.086Z,27.05
2022-07-29T09:53:10.205Z,27.64
2022-07-29T09:55:55.016Z,27.70
2022-07-29T09:58:23.343Z,27.21
2022-07-29T10:00:52.031Z,27.88
2022-07-29T10:03:19.186Z,27.79
2022-07-29T10:05:46.669Z,27.81
2022-07-29T10:08:13.591Z,28.48
2022-07-29T10:10:43.367Z,28.29
2022-07-29T10:13:15.806Z,28.33
2022-07-29T10:15:46.035Z,28.46
2022-07-29T10:18:14.206Z,29.21
2022-07-29T10:20:41.088Z,28.85
2022-07-29T10:23:07.583Z,29.49
2022-07-29T10:25:34.307Z,29.39
2022-07-29T10:28:00.961Z,29.66
2022-07-29T10:30:27.694Z,29.69
2022-07-29T10:33:28.603Z,30.14
2022-07-29T10:36:32.677Z,30.74
2022-07-29T10:39:08.191Z,30.81
2022-07-29T10:41:43.854Z,30.43
2022-07-29T10:44:23.143Z,30.14
2022-07-29T10:46:51.510Z,30.84
2022-07-29T10:49:27.225Z,30.68
2022-07-29T10:52:05.979Z,30.59
2022-07-29T10:54:45.983Z,30.67
2022-07-29T10:57:15.499Z,31.75
2022-07-29T10:59:44.112Z,31.72
2022-07-29T11:02:43.963Z,30.54
2022-07-29T11:05:20.396Z,30.05
2022-07-29T11:08:20.105Z,29.75
2022-07-29T11:10:49.177Z,29.99
2022-07-29T11:13:44.225Z,30.48
2022-07-29T11:16:11.262Z,31.50
2022-07-29T11:19:13.160Z,31.81
2022-07-29T11:21:55.302Z,32.63
2022-07-29T11:24:31.927Z,32.61
2022-07-29T11:27:20.918Z,32.79
2022-07-29T11:29:58.869Z,32.78
2022-07-29T11:32:38.406Z,32.38
2022-07-29T11:35:37.132Z,32.22
2022-07-29T11:38:27.644Z,31.67
2022-07-29T11:41:25.928Z,31.85
2022-07-29T11:43:59.265Z,31.71
2022-07-29T11:46:51.820Z,31.82
2022-07-29T11:49:31.966Z,31.06
2022-07-29T11:52:02.491Z,31.90
2022-07-29T11:54:33.555Z,31.97
2022-07-29T11:57:20.101Z,31.98
2022-07-29T11:59:48.694Z,33.09
2022-07-29T12:02:38.176Z,32.13
2022-07-29T12:05:10.592Z,32.74
2022-07-29T12:07:49.875Z,32.24
2022-07-29T12:10:19.838Z,32.96
2022-07-29T12:12:56.192Z,33.23
2022-07-29T12:15:39.486Z,33.79
2022-07-29T12:18:18.405Z,33.76
2022-07-29T12:20:46.352Z,33.37
2022-07-29T12:23:13.978Z,33.60
2022-07-29T12:25:49.945Z,33.33
2022-07-29T12:28:27.487Z,33.75
2022-07-29T12:30:54.884Z,34.55
2022-07-29T12:33:29.572Z,34.68
2022-07-29T12:36:09.420Z,34.03
2022-07-29T12:38:41.477Z,33.35
2022-07-29T12:41:08.060Z,33.41
2022-07-29T12:43:34.645Z,33.70
2022-07-29T12:46:13.750Z,34.15
2022-07-29T12:48:42.243Z,33.60
2022-07-29T12:51:10.060Z,33.46
2022-07-29T12:53:37.778Z,33.96
2022-07-29T12:56:20.555Z,34.57
2022-07-29T12:58:51.098Z,34.99
2022-07-29T13:01:21.114Z,34.29
2022-07-29T13:03:59.792Z,34.44
2022-07-29T13:06:35.896Z,33.89
2022-07-29T13:09:10.531Z,34.35
2022-07-29T13:12:07.170Z,35.24
2022-07-29T13:14:34.791Z,35.03
2022-07-29T13:17:06.052Z,35.37
2022-07-29T13:19:37.195Z,35.53
2022-07-29T13:22:04.284Z,36.01
2022-07-29T13:24:31.099Z,36.34
2022-07-29T13:26:57.541Z,36.69
2022-07-29T13:29:26.549Z,35.60
2022-07-29T13:31:55.721Z,36.13
2022-07-29T13:34:23.304Z,35.48
2022-07-29T13:36:49.735Z,36.15
2022-07-29T13:39:16.390Z,35.17
2022-07-29T13:41:43.365Z,35.87
2022-07-29T13:44:09.922Z,35.39
2022-07-29T13:46:36.372Z,35.06
2022-07-29T13:49:06.667Z,32.44
2022-07-29T13:51:33.418Z,32.97
2022-07-29T13:53:59.907Z,31.99
2022-07-29T13:56:27.112Z,31.87
2022-07-29T13:58:53.526Z,32.91
2022-07-29T14:01:20.096Z,32.77
2022-07-29T14:03:46.656Z,33.41
2022-07-29T14:06:14.189Z,32.88
2022-07-29T14:08:41.111Z,32.56
2022-07-29T14:11:07.653Z,32.68
2022-07-29T14:13:34.110Z,32.41
2022-07-29T14:16:00.642Z,32.97
2022-07-29T14:18:27.104Z,32.87
2022-07-29T14:20:53.824Z,32.25
2022-07-29T14:23:20.513Z,31.97
2022-07-29T14:25:47.229Z,31.78
2022-07-29T14:28:16.044Z,31.81
2022-07-29T14:30:43.207Z,32.18
2022-07-29T14:33:09.865Z,32.79
2022-07-29T14:35:36.368Z,32.43
2022-07-29T14:38:03.063Z,32.70
2022-07-29T14:40:29.710Z,32.50
2022-07-29T14:42:56.323Z,32.17
2022-07-29T14:45:23.942Z,31.62
2022-07-29T14:47:51.656Z,32.03
2022-07-29T14:50:31.136Z,33.22
2022-07-29T14:52:59.070Z,32.61
2022-07-29T14:55:25.669Z,32.69
2022-07-29T14:57:55.431Z,33.80
2022-07-29T15:00:25.272Z,34.34
2022-07-29T15:03:01.955Z,33.79
2022-07-29T15:05:29.244Z,32.80
2022-07-29T15:07:55.799Z,33.21
2022-07-29T15:10:22.497Z,33.54
2022-07-29T15:12:51.296Z,33.83
2022-07-29T15:15:17.773Z,33.32
2022-07-29T15:17:44.318Z,33.26
2022-07-29T15:20:12.604Z,33.64
2022-07-29T15:22:39.341Z,33.47
2022-07-29T15:25:06.699Z,32.66
2022-07-29T15:27:33.243Z,32.62
2022-07-29T15:29:59.786Z,32.06
2022-07-29T15:32:28.481Z,32.06
2022-07-29T15:34:55.017Z,31.73
2022-07-29T15:37:21.687Z,31.74
2022-07-29T15:39:48.372Z,31.51
2022-07-29T15:42:14.840Z,30.82
2022-07-29T15:44:44.414Z,30.70
2022-07-29T15:47:11.007Z,31.53
2022-07-29T15:49:48.405Z,31.14
2022-07-29T15:52:24.755Z,31.20
2022-07-29T15:54:53.961Z,31.44
2022-07-29T15:57:20.520Z,31.44
2022-07-29T15:59:47.034Z,31.41
2022-07-29T16:02:13.584Z,31.35
2022-07-29T16:04:40.205Z,31.03
2022-07-29T16:07:09.315Z,30.89
2022-07-29T16:09:35.810Z,30.89
2022-07-29T16:12:02.551Z,30.47
2022-07-29T16:14:32.165Z,29.79
2022-07-29T16:16:59.083Z,29.85
2022-07-29T16:19:25.803Z,29.99
2022-07-29T16:21:53.499Z,30.24
2022-07-29T16:24:22.678Z,30.31
2022-07-29T16:26:50.247Z,30.15
2022-07-29T16:29:18.538Z,30.26
2022-07-29T16:31:45.130Z,30.29
2022-07-29T16:34:11.576Z,29.78
2022-07-29T16:36:38.040Z,29.92
2022-07-29T16:39:05.595Z,29.03
2022-07-29T16:41:32.288Z,28.89
2022-07-29T16:43:59.120Z,28.42
2022-07-29T16:46:25.867Z,27.87
2022-07-29T16:48:52.467Z,27.16
2022-07-29T16:51:19.239Z,26.75
2022-07-29T16:53:45.839Z,26.70
2022-07-29T16:56:16.441Z,26.06
2022-07-29T16:58:43.964Z,25.93
2022-07-29T17:01:11.297Z,25.61
2022-07-29T17:04:00.264Z,25.61
2022-07-29T17:06:27.605Z,25.60
2022-07-29T17:08:54.056Z,25.50
2022-07-29T17:11:20.773Z,25.52
2022-07-29T17:13:47.225Z,25.12
2022-07-29T17:16:14.894Z,24.97
2022-07-29T17:18:41.327Z,24.77
2022-07-29T17:21:07.793Z,24.73
2022-07-29T17:23:34.234Z,24.35
2022-07-29T17:26:00.983Z,24.40
2022-07-29T17:28:27.697Z,24.46
2022-07-29T17:30:54.270Z,24.52
2022-07-29T17:33:23.040Z,24.27
2022-07-29T17:36:08.447Z,24.42
2022-07-29T17:38:35.022Z,24.24
2022-07-29T17:41:01.600Z,24.29
2022-07-29T17:43:34.377Z,23.92
2022-07-29T17:46:00.999Z,23.97
2022-07-29T17:48:27.532Z,23.85
2022-07-29T17:50:54.128Z,23.79
2022-07-29T17:53:20.775Z,23.65
2022-07-29T17:55:48.506Z,23.52
2022-07-29T17:58:15.920Z,23.65
2022-07-29T18:00:42.713Z,23.43
2022-07-29T18:03:09.719Z,23.39
2022-07-29T18:05:37.004Z,23.32
2022-07-29T18:08:03.879Z,23.11
2022-07-29T18:10:30.359Z,23.36
2022-07-29T18:12:56.944Z,23.30
2022-07-29T18:15:23.451Z,23.10
2022-07-29T18:17:56.993Z,22.86
2022-07-29T18:20:25.692Z,23.15
2022-07-29T18:22:52.221Z,23.12
2022-07-29T18:25:18.788Z,22.87
2022-07-29T18:27:45.291Z,22.79
2022-07-29T18:30:12.016Z,22.63
2022-07-29T18:32:39.545Z,22.51
2022-07-29T18:35:06.699Z,22.61
2022-07-29T18:38:01.639Z,22.69
2022-07-29T18:40:23.724Z,22.62
2022-07-29T18:42:50.144Z,22.40
2022-07-29T18:45:19.090Z,22.38
2022-07-29T18:47:47.547Z,22.50
2022-07-29T18:50:14.603Z,22.31
2022-07-29T18:52:41.427Z,22.32
2022-07-29T18:55:08.629Z,22.33
2022-07-29T18:57:56.192Z,22.34
2022-07-29T19:00:22.479Z,22.30
2022-07-29T19:02:49.760Z,22.31
2022-07-29T19:05:16.605Z,22.20
2022-07-29T19:07:43.058Z,22.27
2022-07-29T19:10:09.804Z,22.16
2022-07-29T19:12:36.359Z,22.06
2022-07-29T19:15:03.506Z,21.96
2022-07-29T19:17:30.376Z,22.07
2022-07-29T19:19:57.117Z,21.81
2022-07-29T19:22:23.754Z,21.88
2022-07-29T19:24:50.902Z,21.84
2022-07-29T19:27:17.584Z,21.93
2022-07-29T19:29:44.476Z,21.93
2022-07-29T19:32:11.864Z,21.83
2022-07-29T19:34:38.418Z,21.69
2022-07-29T19:37:05.251Z,21.60
2022-07-29T19:39:35.539Z,21.59
2022-07-29T19:42:03.520Z,21.62
2022-07-29T19:44:30.262Z,21.49
2022-07-29T19:46:59.349Z,21.45
2022-07-29T19:49:26.071Z,21.42
2022-07-29T19:51:53.997Z,21.49
2022-07-29T19:54:20.765Z,21.49
2022-07-29T19:56:47.284Z,21.48
2022-07-29T19:59:16.311Z,21.47
2022-07-29T20:01:42.849Z,21.34
2022-07-29T20:04:10.735Z,21.30
2022-07-29T20:06:37.467Z,21.07
2022-07-29T20:09:05.663Z,21.03
2022-07-29T20:11:36.693Z,21.05
2022-07-29T20:14:05.334Z,21.24
2022-07-29T20:16:32.349Z,21.20
2022-07-29T20:18:58.973Z,21.09
2022-07-29T20:21:26.731Z,21.18
2022-07-29T20:23:54.087Z,21.09
2022-07-29T20:26:20.539Z,21.05
2022-07-29T20:28:49.457Z,20.99
2022-07-29T20:31:16.786Z,21.02
2022-07-29T20:33:43.375Z,21.18
2022-07-29T20:36:09.844Z,21.21
2022-07-29T20:38:36.489Z,20.97
2022-07-29T20:41:03.029Z,20.96
2022-07-29T20:43:29.528Z,21.19
2022-07-29T20:45:56.145Z,21.23
2022-07-29T20:48:22.677Z,21.18
2022-07-29T20:50:49.312Z,21.20
2022-07-29T20:53:16.641Z,21.24
2022-07-29T20:55:43.437Z,21.20
2022-07-29T20:58:09.964Z,21.20
2022-07-29T21:00:36.980Z,21.19
2022-07-29T21:03:03.726Z,21.04
2022-07-29T21:05:31.352Z,21.11
2022-07-29T21:07:58.377Z,21.01
2022-07-29T21:10:25.616Z,20.94
2022-07-29T21:12:52.142Z,20.92
2022-07-29T21:15:20.699Z,20.99
2022-07-29T21:17:48.151Z,20.96
2022-07-29T21:20:17.562Z,20.91
2022-07-29T21:22:44.990Z,20.92
2022-07-29T21:25:12.128Z,20.73
2022-07-29T21:27:57.128Z,20.54
2022-07-29T21:30:23.583Z,20.52
2022-07-29T21:32:50.214Z,20.44
2022-07-29T21:35:35.749Z,20.41
2022-07-29T21:38:03.515Z,20.33
2022-07-29T21:40:30.368Z,20.24
2022-07-29T21:42:56.907Z,20.03
2022-07-29T21:45:23.680Z,19.95
2022-07-29T21:47:50.123Z,20.02
2022-07-29T21:50:16.703Z,19.97
2022-07-29T21:52:43.211Z,19.91
2022-07-29T21:55:11.448Z,19.94
2022-07-29T21:57:38.190Z,20.03
2022-07-29T22:00:07.744Z,19.89
2022-07-29T22:02:39.363Z,19.95
2022-07-29T22:05:05.976Z,19.95
2022-07-29T22:07:56.375Z,19.96
2022-07-29T22:10:19.431Z,19.92
2022-07-29T22:12:46.208Z,19.95
2022-07-29T22:15:12.709Z,20.00
2022-07-29T22:17:40.861Z,20.00
2022-07-29T22:20:07.855Z,19.93
2022-07-29T22:22:34.344Z,19.96
2022-07-29T22:25:00.907Z,19.92
2022-07-29T22:27:27.450Z,19.77
2022-07-29T22:29:54.179Z,19.72
2022-07-29T22:32:20.658Z,19.77
2022-07-29T22:34:47.080Z,19.80
2022-07-29T22:37:13.620Z,19.70
2022-07-29T22:39:40.139Z,19.73
2022-07-29T22:42:06.771Z,19.72
2022-07-29T22:44:33.357Z,19.65
2022-07-29T22:47:00.220Z,19.71
2022-07-29T22:49:26.931Z,19.58
2022-07-29T22:51:53.396Z,19.50
2022-07-29T22:54:19.816Z,19.51
2022-07-29T22:56:46.297Z,19.55
2022-07-29T22:59:12.733Z,19.57
2022-07-29T23:01:39.284Z,19.48
2022-07-29T23:04:06.523Z,19.42
2022-07-29T23:06:33.960Z,19.37
2022-07-29T23:09:00.437Z,19.37
2022-07-29T23:11:26.910Z,19.32
2022-07-29T23:13:53.365Z,19.35
2022-07-29T23:16:26.583Z,19.37
2022-07-29T23:18:54.052Z,19.46
2022-07-29T23:21:20.883Z,19.37
2022-07-29T23:23:48.415Z,19.27
2022-07-29T23:26:16.894Z,19.33
2022-07-29T23:28:44.902Z,19.30
2022-07-29T23:31:13.316Z,19.31
2022-07-29T23:33:41.727Z,19.29
2022-07-29T23:36:09.042Z,19.35
2022-07-29T23:38:39.081Z,19.30
2022-07-29T23:41:08.871Z,19.32
2022-07-29T23:43:38.516Z,19.35
2022-07-29T23:46:05.167Z,19.33
2022-07-29T23:48:33.179Z,19.34
2022-07-29T23:51:01.026Z,19.29
2022-07-29T23:53:28.292Z,19.18
2022-07-29T23:55:55.433Z,19.16
2022-07-29T23:58:22.008Z,19.08
